KHZD

Carroll County Airport

Huntingdon, Tennessee, USA
METAR KHZD 230235Z AUTO 00000KT 10SM SCT037 SCT042 BKN055 21/21 A3002 RMK A01
Observed Flight Rules
May-23 @ 02:35 UTC (32 minutes ago) Visual Flight Rules
Visibility Clouds
10 miles
  • Scattered at 3,700' AGL
  • Scattered at 4,200' AGL
  • Broken at 5,500' AGL
Temperatures Readings
Current 21°C / 70°F
Dewpoint 21°C / 70°F
Humidity 100%
Altimeter 30.02" Hg
Pressure 1017 hPa
Elevation 151
METAR KHZD 230235Z AUTO 00000KT 10SM SCT037 SCT042 BKN055 21/21 A3002 RMK A01
Observed Flight Rules
May-23 @ 02:35 UTC
(32 minutes ago)
VFR
Clouds
  • Scattered at 3,700' AGL
  • Scattered at 4,200' AGL
  • Broken at 5,500' AGL
Temperature Dewpoint
21°C / 70°F 21°C / 70°F
Humidity Altimeter Pressure
100% 30.02" Hg 1017 hPa